Time,TemperatureF,DewpointF,PressureIn,WindDirection,WindDirectionDegrees,WindSpeedMPH,WindSpeedGustMPH,Humidity,HourlyPrecipIn,Conditions,Clouds,dailyrainin,SoftwareType,DateUTC
2013-08-16 00:11:00,66.0,57.0,30.04,SE,142,1.0,3.0,73,0.00,,,0.01,,2013-08-16 05:11:00,
2013-08-16 00:22:00,66.0,57.0,30.04,SE,142,1.0,3.0,73,0.00,,,0.01,,2013-08-16 05:22:00,
2013-08-16 02:00:00,66.0,57.0,30.05,East,93,2.0,2.0,73,0.00,,,0.01,,2013-08-16 07:00:00,
2013-08-16 02:11:00,65.0,56.0,30.04,SSE,151,1.0,1.0,73,0.00,,,0.01,,2013-08-16 07:11:00,
2013-08-16 02:21:00,65.0,56.0,30.04,SSE,151,1.0,1.0,73,0.00,,,0.01,,2013-08-16 07:21:00,
2013-08-16 02:52:00,64.0,56.0,30.04,SSE,151,1.0,1.0,75,0.00,,,0.01,,2013-08-16 07:52:00,
2013-08-16 03:11:00,64.0,56.0,30.04,SSE,151,1.0,1.0,76,0.00,,,0.01,,2013-08-16 08:11:00,
2013-08-16 03:21:00,64.0,56.0,30.04,SSE,151,1.0,1.0,76,0.00,,,0.01,,2013-08-16 08:21:00,
2013-08-16 03:52:00,63.0,56.0,30.05,SSE,151,0.0,2.0,77,0.00,,,0.01,,2013-08-16 08:52:00,
2013-08-16 04:11:00,63.0,55.0,30.05,SSE,151,2.0,2.0,76,0.00,,,0.01,,2013-08-16 09:11:00,
2013-08-16 04:21:00,63.0,55.0,30.05,SSE,151,2.0,2.0,76,0.00,,,0.01,,2013-08-16 09:21:00,
2013-08-16 04:53:00,63.0,55.0,30.06,SSE,151,1.0,1.0,75,0.00,,,0.01,,2013-08-16 09:53:00,
2013-08-16 05:13:00,63.0,55.0,30.06,SSE,151,2.0,3.0,74,0.00,,,0.01,,2013-08-16 10:13:00,
2013-08-16 05:23:00,63.0,55.0,30.06,SSE,151,2.0,3.0,74,0.00,,,0.01,,2013-08-16 10:23:00,
2013-08-16 05:53:00,63.0,55.0,30.06,SSE,152,1.0,1.0,74,0.00,,,0.01,,2013-08-16 10:53:00,
2013-08-16 06:12:00,63.0,55.0,30.06,SSE,152,1.0,1.0,75,0.00,,,0.01,,2013-08-16 11:12:00,
2013-08-16 06:21:00,63.0,55.0,30.06,SSE,152,1.0,1.0,75,0.00,,,0.01,,2013-08-16 11:21:00,
2013-08-16 06:52:00,63.0,55.0,30.07,North,360,0.0,1.0,76,0.00,,,0.01,,2013-08-16 11:52:00,
2013-08-16 07:12:00,62.0,55.0,30.07,SSE,152,1.0,1.0,78,0.00,,,0.01,,2013-08-16 12:12:00,
2013-08-16 07:21:00,62.0,55.0,30.07,SSE,152,1.0,1.0,78,0.00,,,0.01,,2013-08-16 12:21:00,
2013-08-16 07:52:00,62.0,55.0,30.08,SSE,152,1.0,2.0,77,0.00,,,0.01,,2013-08-16 12:52:00,
2013-08-16 08:11:00,62.0,56.0,30.09,North,360,0.0,0.0,80,0.00,,,0.01,,2013-08-16 13:11:00,
2013-08-16 08:21:00,62.0,56.0,30.09,North,360,0.0,0.0,80,0.00,,,0.01,,2013-08-16 13:21:00,
2013-08-16 08:53:00,63.0,57.0,30.10,North,360,0.0,0.0,81,0.00,,,0.01,,2013-08-16 13:53:00,
2013-08-16 09:11:00,64.0,57.0,30.09,SE,142,3.0,3.0,79,0.00,,,0.01,,2013-08-16 14:11:00,
2013-08-16 09:22:00,64.0,57.0,30.09,SE,142,3.0,3.0,79,0.00,,,0.01,,2013-08-16 14:22:00,
2013-08-16 09:52:00,66.0,58.0,30.11,ESE,104,0.0,1.0,75,0.00,,,0.01,,2013-08-16 14:52:00,
2013-08-16 10:12:00,67.0,58.0,30.11,ESE,118,2.0,2.0,72,0.00,,,0.01,,2013-08-16 15:12:00,
2013-08-16 10:22:00,67.0,58.0,30.11,ESE,118,2.0,2.0,72,0.00,,,0.01,,2013-08-16 15:22:00,
2013-08-16 10:56:00,68.0,57.0,30.12,SE,131,0.0,2.0,68,0.00,,,0.01,,2013-08-16 15:56:00,
2013-08-16 11:13:00,68.0,57.0,30.12,SSE,154,1.0,1.0,67,0.00,,,0.01,,2013-08-16 16:13:00,
2013-08-16 11:23:00,68.0,57.0,30.12,SSE,154,1.0,1.0,67,0.00,,,0.01,,2013-08-16 16:23:00,
2013-08-16 11:57:00,69.0,57.0,30.12,SSE,153,1.0,1.0,66,0.00,,,0.01,,2013-08-16 16:57:00,
2013-08-16 12:12:00,71.0,58.0,30.11,SE,136,2.0,4.0,64,0.00,,,0.01,,2013-08-16 17:12:00,
2013-08-16 12:28:00,71.0,58.0,30.11,SE,136,2.0,4.0,64,0.00,,,0.01,,2013-08-16 17:28:00,
2013-08-16 13:00:00,72.0,60.0,30.11,North,11,3.0,3.0,65,0.00,,,0.01,,2013-08-16 18:00:00,
2013-08-16 13:15:00,74.0,59.0,30.11,SSE,154,1.0,2.0,59,0.00,,,0.01,,2013-08-16 18:15:00,
2013-08-16 13:28:00,74.0,59.0,30.11,SSE,154,1.0,2.0,59,0.00,,,0.01,,2013-08-16 18:28:00,
2013-08-16 13:50:00,-999.0,-99.9,30.11,ENE,67,2.0,2.0,58,0.00,,,0.01,,2013-08-16 18:50:00,
2013-08-16 13:55:00,73.0,57.0,30.11,ENE,67,2.0,2.0,58,0.00,,,0.01,,2013-08-16 18:55:00,
2013-08-16 14:14:00,74.0,59.0,30.10,North,357,2.0,5.0,59,0.00,,,0.01,,2013-08-16 19:14:00,
2013-08-16 14:25:00,74.0,59.0,30.10,North,357,2.0,5.0,59,0.00,,,0.01,,2013-08-16 19:25:00,
2013-08-16 14:55:00,74.0,58.0,30.09,North,358,1.0,3.0,58,0.00,,,0.01,,2013-08-16 19:55:00,
2013-08-16 15:11:00,75.0,61.0,30.09,ENE,67,1.0,2.0,62,0.00,,,0.01,,2013-08-16 20:11:00,
2013-08-16 15:23:00,75.0,61.0,30.09,ENE,67,1.0,2.0,62,0.00,,,0.01,,2013-08-16 20:23:00,
2013-08-16 15:52:00,76.0,61.0,30.09,SE,131,1.0,2.0,59,0.00,,,0.01,,2013-08-16 20:52:00,
2013-08-16 16:11:00,75.0,60.0,30.09,ESE,114,1.0,1.0,59,0.00,,,0.01,,2013-08-16 21:11:00,
2013-08-16 16:25:00,75.0,60.0,30.09,ESE,114,1.0,1.0,59,0.00,,,0.01,,2013-08-16 21:25:00,
2013-08-16 16:40:00,-999.0,-99.9,30.09,North,1,1.0,3.0,-999,0.00,,,0.00,,2013-08-16 21:40:00,
2013-08-16 16:54:00,74.0,58.0,30.09,North,1,1.0,3.0,58,0.00,,,0.00,,2013-08-16 21:54:00,
2013-08-16 17:13:00,74.0,58.0,30.09,SE,139,1.0,1.0,58,0.00,,,0.00,,2013-08-16 22:13:00,
2013-08-16 17:24:00,74.0,58.0,30.09,SE,139,1.0,1.0,58,0.00,,,0.00,,2013-08-16 22:24:00,
2013-08-16 17:52:00,74.0,58.0,30.09,SSE,147,3.0,3.0,58,0.00,,,0.00,,2013-08-16 22:52:00,
2013-08-16 18:12:00,73.0,58.0,30.09,SE,134,1.0,2.0,60,0.00,,,0.00,,2013-08-16 23:12:00,
2013-08-16 18:23:00,73.0,58.0,30.09,SE,134,1.0,2.0,60,0.00,,,0.00,,2013-08-16 23:23:00,
2013-08-16 18:42:00,73.0,58.0,30.10,SE,128,1.0,1.0,59,0.00,,,0.00,,2013-08-16 23:42:00,
2013-08-16 18:52:00,73.0,58.0,30.10,SE,128,1.0,1.0,59,0.00,,,0.00,,2013-08-16 23:52:00,
2013-08-16 19:21:00,72.0,57.0,30.09,North,360,0.0,0.0,60,0.00,,,0.00,,2013-08-17 00:21:00,
2013-08-16 19:52:00,72.0,57.0,30.10,North,360,0.0,0.0,60,0.00,,,0.00,,2013-08-17 00:52:00,
2013-08-16 20:11:00,70.0,56.0,30.10,SE,127,1.0,1.0,61,0.00,,,0.00,,2013-08-17 01:11:00,
2013-08-16 20:21:00,70.0,56.0,30.10,SE,127,1.0,1.0,61,0.00,,,0.00,,2013-08-17 01:21:00,
2013-08-16 20:52:00,69.0,56.0,30.11,North,360,0.0,0.0,63,0.00,,,0.00,,2013-08-17 01:52:00,
2013-08-16 21:11:00,67.0,55.0,30.11,North,360,0.0,0.0,66,0.00,,,0.00,,2013-08-17 02:11:00,
2013-08-16 21:21:00,67.0,55.0,30.11,North,360,0.0,0.0,66,0.00,,,0.00,,2013-08-17 02:21:00,
2013-08-16 21:52:00,67.0,57.0,30.11,North,360,0.0,0.0,70,0.00,,,0.00,,2013-08-17 02:52:00,
2013-08-16 22:11:00,66.0,56.0,30.12,North,360,0.0,0.0,71,0.00,,,0.00,,2013-08-17 03:11:00,
2013-08-16 22:22:00,66.0,56.0,30.12,North,360,0.0,0.0,71,0.00,,,0.00,,2013-08-17 03:22:00,
2013-08-16 22:53:00,65.0,56.0,30.12,North,360,0.0,0.0,73,0.00,,,0.00,,2013-08-17 03:53:00,
2013-08-16 23:12:00,64.0,56.0,30.12,North,360,0.0,0.0,76,0.00,,,0.00,,2013-08-17 04:12:00,
2013-08-16 23:23:00,64.0,56.0,30.12,North,360,0.0,0.0,76,0.00,,,0.00,,2013-08-17 04:23:00,
2013-08-16 23:53:00,63.0,56.0,30.12,North,360,0.0,0.0,77,0.00,,,0.00,,2013-08-17 04:53:00,